sensor_id;sensor_type;location;lat;lon;timestamp;temperature;humidity
70336;SHT31;57756;47.408;18.940;2022-09-09T00:03:53;18.07;93.70
70336;SHT31;57756;47.408;18.940;2022-09-09T00:06:27;18.06;93.51
70336;SHT31;57756;47.408;18.940;2022-09-09T00:09:10;18.01;94.18
70336;SHT31;57756;47.408;18.940;2022-09-09T00:11:47;17.99;93.44
70336;SHT31;57756;47.408;18.940;2022-09-09T00:14:23;18.01;92.95
70336;SHT31;57756;47.408;18.940;2022-09-09T00:16:56;17.99;93.69
70336;SHT31;57756;47.408;18.940;2022-09-09T00:19:40;18.03;92.80
70336;SHT31;57756;47.408;18.940;2022-09-09T00:22:18;18.01;93.10
70336;SHT31;57756;47.408;18.940;2022-09-09T00:24:49;18.00;93.27
70336;SHT31;57756;47.408;18.940;2022-09-09T00:27:28;18.01;93.04
70336;SHT31;57756;47.408;18.940;2022-09-09T00:30:15;17.94;92.72
70336;SHT31;57756;47.408;18.940;2022-09-09T00:32:45;17.93;93.15
70336;SHT31;57756;47.408;18.940;2022-09-09T00:37:45;17.83;92.92
70336;SHT31;57756;47.408;18.940;2022-09-09T00:40:32;17.82;93.19
70336;SHT31;57756;47.408;18.940;2022-09-09T00:46:20;17.72;93.84
70336;SHT31;57756;47.408;18.940;2022-09-09T00:54:40;17.73;94.33
70336;SHT31;57756;47.408;18.940;2022-09-09T00:59:47;17.75;93.63
70336;SHT31;57756;47.408;18.940;2022-09-09T01:02:21;17.75;93.74
70336;SHT31;57756;47.408;18.940;2022-09-09T01:04:48;17.73;93.19
70336;SHT31;57756;47.408;18.940;2022-09-09T01:07:18;17.70;93.84
70336;SHT31;57756;47.408;18.940;2022-09-09T01:09:55;17.66;93.55
70336;SHT31;57756;47.408;18.940;2022-09-09T01:12:25;17.65;93.51
70336;SHT31;57756;47.408;18.940;2022-09-09T01:15:09;17.66;93.83
70336;SHT31;57756;47.408;18.940;2022-09-09T01:20:15;17.59;93.59
70336;SHT31;57756;47.408;18.940;2022-09-09T01:23:08;17.62;93.00
70336;SHT31;57756;47.408;18.940;2022-09-09T01:28:25;17.59;94.28
70336;SHT31;57756;47.408;18.940;2022-09-09T01:30:52;17.61;93.64
70336;SHT31;57756;47.408;18.940;2022-09-09T01:33:18;17.58;94.12
70336;SHT31;57756;47.408;18.940;2022-09-09T01:36:01;17.58;94.19
70336;SHT31;57756;47.408;18.940;2022-09-09T01:38:31;17.56;93.90
70336;SHT31;57756;47.408;18.940;2022-09-09T01:40:56;17.53;94.42
70336;SHT31;57756;47.408;18.940;2022-09-09T01:43:24;17.51;94.04
70336;SHT31;57756;47.408;18.940;2022-09-09T01:45:53;17.51;93.69
70336;SHT31;57756;47.408;18.940;2022-09-09T01:48:20;17.52;93.96
70336;SHT31;57756;47.408;18.940;2022-09-09T01:50:46;17.49;93.71
70336;SHT31;57756;47.408;18.940;2022-09-09T01:53:12;17.49;93.99
70336;SHT31;57756;47.408;18.940;2022-09-09T01:55:40;17.48;94.03
70336;SHT31;57756;47.408;18.940;2022-09-09T01:58:19;17.45;93.99
70336;SHT31;57756;47.408;18.940;2022-09-09T02:01:02;17.43;93.65
70336;SHT31;57756;47.408;18.940;2022-09-09T02:03:32;17.38;94.39
70336;SHT31;57756;47.408;18.940;2022-09-09T02:06:14;17.38;94.37
70336;SHT31;57756;47.408;18.940;2022-09-09T02:08:47;17.35;94.38
70336;SHT31;57756;47.408;18.940;2022-09-09T02:11:19;17.34;94.42
70336;SHT31;57756;47.408;18.940;2022-09-09T02:13:47;17.39;94.40
70336;SHT31;57756;47.408;18.940;2022-09-09T02:19:00;17.35;94.45
70336;SHT31;57756;47.408;18.940;2022-09-09T02:21:29;17.31;94.77
70336;SHT31;57756;47.408;18.940;2022-09-09T02:23:57;17.32;94.29
70336;SHT31;57756;47.408;18.940;2022-09-09T02:26:25;17.34;94.14
70336;SHT31;57756;47.408;18.940;2022-09-09T02:28:54;17.32;94.25
70336;SHT31;57756;47.408;18.940;2022-09-09T02:31:22;17.30;94.39
70336;SHT31;57756;47.408;18.940;2022-09-09T02:33:55;17.27;94.54
70336;SHT31;57756;47.408;18.940;2022-09-09T02:36:25;17.28;94.50
70336;SHT31;57756;47.408;18.940;2022-09-09T02:38:52;17.31;93.95
70336;SHT31;57756;47.408;18.940;2022-09-09T02:41:35;17.25;94.02
70336;SHT31;57756;47.408;18.940;2022-09-09T02:44:02;17.31;93.79
70336;SHT31;57756;47.408;18.940;2022-09-09T02:49:03;17.30;93.61
70336;SHT31;57756;47.408;18.940;2022-09-09T02:51:53;17.22;93.71
70336;SHT31;57756;47.408;18.940;2022-09-09T02:56:52;17.27;93.33
70336;SHT31;57756;47.408;18.940;2022-09-09T02:59:20;17.28;93.38
70336;SHT31;57756;47.408;18.940;2022-09-09T03:01:46;17.24;93.36
70336;SHT31;57756;47.408;18.940;2022-09-09T03:04:12;17.22;93.84
70336;SHT31;57756;47.408;18.940;2022-09-09T03:06:38;17.21;94.21
70336;SHT31;57756;47.408;18.940;2022-09-09T03:09:04;17.18;94.13
70336;SHT31;57756;47.408;18.940;2022-09-09T03:11:29;17.20;94.06
70336;SHT31;57756;47.408;18.940;2022-09-09T03:13:55;17.18;93.91
70336;SHT31;57756;47.408;18.940;2022-09-09T03:16:22;17.22;93.53
70336;SHT31;57756;47.408;18.940;2022-09-09T03:18:47;17.17;93.65
70336;SHT31;57756;47.408;18.940;2022-09-09T03:21:13;17.14;94.08
70336;SHT31;57756;47.408;18.940;2022-09-09T03:23:39;17.14;93.79
70336;SHT31;57756;47.408;18.940;2022-09-09T03:26:05;17.17;93.90
70336;SHT31;57756;47.408;18.940;2022-09-09T03:28:30;17.08;94.04
70336;SHT31;57756;47.408;18.940;2022-09-09T03:31:00;17.06;94.19
70336;SHT31;57756;47.408;18.940;2022-09-09T03:33:26;16.99;94.45
70336;SHT31;57756;47.408;18.940;2022-09-09T03:35:51;16.99;94.65
70336;SHT31;57756;47.408;18.940;2022-09-09T03:38:17;16.95;94.37
70336;SHT31;57756;47.408;18.940;2022-09-09T03:40:56;16.97;94.73
70336;SHT31;57756;47.408;18.940;2022-09-09T03:43:23;16.93;94.31
70336;SHT31;57756;47.408;18.940;2022-09-09T03:45:49;16.94;94.62
70336;SHT31;57756;47.408;18.940;2022-09-09T03:48:15;16.90;94.82
70336;SHT31;57756;47.408;18.940;2022-09-09T03:50:49;16.91;94.70
70336;SHT31;57756;47.408;18.940;2022-09-09T03:53:16;16.95;94.43
70336;SHT31;57756;47.408;18.940;2022-09-09T03:55:48;16.93;94.87
70336;SHT31;57756;47.408;18.940;2022-09-09T03:58:15;16.94;94.55
70336;SHT31;57756;47.408;18.940;2022-09-09T04:00:41;16.88;94.37
70336;SHT31;57756;47.408;18.940;2022-09-09T04:03:10;16.86;94.96
70336;SHT31;57756;47.408;18.940;2022-09-09T04:05:35;16.91;94.93
70336;SHT31;57756;47.408;18.940;2022-09-09T04:08:08;16.81;94.82
70336;SHT31;57756;47.408;18.940;2022-09-09T04:10:34;16.87;95.05
70336;SHT31;57756;47.408;18.940;2022-09-09T04:13:03;16.86;95.09
70336;SHT31;57756;47.408;18.940;2022-09-09T04:15:29;16.81;95.10
70336;SHT31;57756;47.408;18.940;2022-09-09T04:17:55;16.84;94.88
70336;SHT31;57756;47.408;18.940;2022-09-09T04:20:21;16.79;95.06
70336;SHT31;57756;47.408;18.940;2022-09-09T04:22:47;16.77;95.31
70336;SHT31;57756;47.408;18.940;2022-09-09T04:25:13;16.79;95.09
70336;SHT31;57756;47.408;18.940;2022-09-09T04:27:38;16.73;95.46
70336;SHT31;57756;47.408;18.940;2022-09-09T04:30:04;16.73;95.47
70336;SHT31;57756;47.408;18.940;2022-09-09T04:32:32;16.74;95.36
70336;SHT31;57756;47.408;18.940;2022-09-09T04:34:58;16.74;95.26
70336;SHT31;57756;47.408;18.940;2022-09-09T04:37:23;16.76;95.48
70336;SHT31;57756;47.408;18.940;2022-09-09T04:39:50;16.74;95.19
70336;SHT31;57756;47.408;18.940;2022-09-09T04:42:15;16.73;95.20
70336;SHT31;57756;47.408;18.940;2022-09-09T04:44:43;16.67;95.54
70336;SHT31;57756;47.408;18.940;2022-09-09T04:47:09;16.70;95.51
70336;SHT31;57756;47.408;18.940;2022-09-09T04:49:35;16.72;95.45
70336;SHT31;57756;47.408;18.940;2022-09-09T04:52:01;16.74;95.37
70336;SHT31;57756;47.408;18.940;2022-09-09T04:54:27;16.76;95.52
70336;SHT31;57756;47.408;18.940;2022-09-09T04:56:53;16.79;95.23
70336;SHT31;57756;47.408;18.940;2022-09-09T04:59:20;16.79;95.12
70336;SHT31;57756;47.408;18.940;2022-09-09T05:01:45;16.76;95.30
70336;SHT31;57756;47.408;18.940;2022-09-09T05:04:11;16.76;95.07
70336;SHT31;57756;47.408;18.940;2022-09-09T05:06:36;16.79;95.26
70336;SHT31;57756;47.408;18.940;2022-09-09T05:09:02;16.83;95.00
70336;SHT31;57756;47.408;18.940;2022-09-09T05:11:30;16.88;94.96
70336;SHT31;57756;47.408;18.940;2022-09-09T05:13:57;16.91;94.71
70336;SHT31;57756;47.408;18.940;2022-09-09T05:16:23;16.94;94.71
70336;SHT31;57756;47.408;18.940;2022-09-09T05:18:49;16.95;94.48
70336;SHT31;57756;47.408;18.940;2022-09-09T05:21:17;17.00;94.37
70336;SHT31;57756;47.408;18.940;2022-09-09T05:23:43;17.07;94.43
70336;SHT31;57756;47.408;18.940;2022-09-09T05:26:15;17.22;93.76
70336;SHT31;57756;47.408;18.940;2022-09-09T05:28:41;17.39;93.41
70336;SHT31;57756;47.408;18.940;2022-09-09T05:31:08;17.51;92.98
70336;SHT31;57756;47.408;18.940;2022-09-09T05:33:34;17.53;93.26
70336;SHT31;57756;47.408;18.940;2022-09-09T05:36:03;17.66;92.23
70336;SHT31;57756;47.408;18.940;2022-09-09T05:38:30;17.72;92.13
70336;SHT31;57756;47.408;18.940;2022-09-09T05:40:56;17.72;91.87
70336;SHT31;57756;47.408;18.940;2022-09-09T05:43:25;17.76;91.82
70336;SHT31;57756;47.408;18.940;2022-09-09T05:46:00;17.91;91.36
70336;SHT31;57756;47.408;18.940;2022-09-09T05:48:31;18.03;90.47
70336;SHT31;57756;47.408;18.940;2022-09-09T05:50:57;18.16;90.23
70336;SHT31;57756;47.408;18.940;2022-09-09T05:53:23;18.21;89.38
70336;SHT31;57756;47.408;18.940;2022-09-09T05:55:48;18.38;89.26
70336;SHT31;57756;47.408;18.940;2022-09-09T05:58:14;18.55;88.67
70336;SHT31;57756;47.408;18.940;2022-09-09T06:00:40;18.54;88.71
70336;SHT31;57756;47.408;18.940;2022-09-09T06:03:06;18.59;88.56
70336;SHT31;57756;47.408;18.940;2022-09-09T06:05:31;18.54;88.15
70336;SHT31;57756;47.408;18.940;2022-09-09T06:07:57;18.62;88.19
70336;SHT31;57756;47.408;18.940;2022-09-09T06:10:22;18.68;88.03
70336;SHT31;57756;47.408;18.940;2022-09-09T06:12:48;18.69;87.10
70336;SHT31;57756;47.408;18.940;2022-09-09T06:15:13;18.81;87.19
70336;SHT31;57756;47.408;18.940;2022-09-09T06:17:39;18.77;87.30
70336;SHT31;57756;47.408;18.940;2022-09-09T06:20:05;19.00;87.44
70336;SHT31;57756;47.408;18.940;2022-09-09T06:22:31;19.28;86.66
70336;SHT31;57756;47.408;18.940;2022-09-09T06:24:56;19.75;85.19
70336;SHT31;57756;47.408;18.940;2022-09-09T06:27:22;20.13;83.60
70336;SHT31;57756;47.408;18.940;2022-09-09T06:29:47;20.22;83.92
70336;SHT31;57756;47.408;18.940;2022-09-09T06:32:14;20.34;83.87
70336;SHT31;57756;47.408;18.940;2022-09-09T06:34:39;20.36;83.67
70336;SHT31;57756;47.408;18.940;2022-09-09T06:37:05;20.41;83.11
70336;SHT31;57756;47.408;18.940;2022-09-09T06:39:32;20.57;82.63
70336;SHT31;57756;47.408;18.940;2022-09-09T06:41:57;20.58;82.55
70336;SHT31;57756;47.408;18.940;2022-09-09T06:44:24;20.39;82.54
70336;SHT31;57756;47.408;18.940;2022-09-09T06:46:52;20.36;82.83
70336;SHT31;57756;47.408;18.940;2022-09-09T06:49:17;20.48;82.02
70336;SHT31;57756;47.408;18.940;2022-09-09T06:51:44;20.65;81.57
70336;SHT31;57756;47.408;18.940;2022-09-09T06:54:10;20.77;82.29
70336;SHT31;57756;47.408;18.940;2022-09-09T06:56:38;20.87;81.04
70336;SHT31;57756;47.408;18.940;2022-09-09T06:59:07;20.85;81.31
70336;SHT31;57756;47.408;18.940;2022-09-09T07:01:37;20.82;80.91
70336;SHT31;57756;47.408;18.940;2022-09-09T07:04:04;20.61;80.70
70336;SHT31;57756;47.408;18.940;2022-09-09T07:06:34;20.48;80.63
70336;SHT31;57756;47.408;18.940;2022-09-09T07:09:02;20.27;81.82
70336;SHT31;57756;47.408;18.940;2022-09-09T07:11:31;20.13;81.95
70336;SHT31;57756;47.408;18.940;2022-09-09T07:13:58;20.54;80.61
70336;SHT31;57756;47.408;18.940;2022-09-09T07:16:24;21.29;79.48
70336;SHT31;57756;47.408;18.940;2022-09-09T07:18:51;21.84;77.90
70336;SHT31;57756;47.408;18.940;2022-09-09T07:21:18;22.28;76.54
70336;SHT31;57756;47.408;18.940;2022-09-09T07:23:44;22.52;75.27
70336;SHT31;57756;47.408;18.940;2022-09-09T07:26:15;22.53;74.77
70336;SHT31;57756;47.408;18.940;2022-09-09T07:28:41;22.84;74.56
70336;SHT31;57756;47.408;18.940;2022-09-09T07:31:13;23.25;72.49
70336;SHT31;57756;47.408;18.940;2022-09-09T07:33:41;23.35;71.89
70336;SHT31;57756;47.408;18.940;2022-09-09T07:36:14;23.58;71.34
70336;SHT31;57756;47.408;18.940;2022-09-09T07:38:45;23.93;71.76
70336;SHT31;57756;47.408;18.940;2022-09-09T07:41:22;24.21;70.30
70336;SHT31;57756;47.408;18.940;2022-09-09T07:43:50;24.28;68.73
70336;SHT31;57756;47.408;18.940;2022-09-09T07:46:18;24.41;68.59
70336;SHT31;57756;47.408;18.940;2022-09-09T07:48:49;24.45;68.76
70336;SHT31;57756;47.408;18.940;2022-09-09T07:51:20;24.59;68.06
70336;SHT31;57756;47.408;18.940;2022-09-09T07:53:52;24.75;68.20
70336;SHT31;57756;47.408;18.940;2022-09-09T07:56:18;24.99;67.46
70336;SHT31;57756;47.408;18.940;2022-09-09T07:58:47;25.17;65.63
70336;SHT31;57756;47.408;18.940;2022-09-09T08:01:18;25.58;66.71
70336;SHT31;57756;47.408;18.940;2022-09-09T08:03:52;25.89;64.48
70336;SHT31;57756;47.408;18.940;2022-09-09T08:06:18;25.89;64.30
70336;SHT31;57756;47.408;18.940;2022-09-09T08:08:43;25.96;63.05
70336;SHT31;57756;47.408;18.940;2022-09-09T08:11:14;26.05;62.96
70336;SHT31;57756;47.408;18.940;2022-09-09T08:13:41;26.16;62.74
70336;SHT31;57756;47.408;18.940;2022-09-09T08:16:09;26.44;63.22
70336;SHT31;57756;47.408;18.940;2022-09-09T08:18:35;26.61;62.96
70336;SHT31;57756;47.408;18.940;2022-09-09T08:21:15;26.90;61.29
70336;SHT31;57756;47.408;18.940;2022-09-09T08:23:43;27.15;60.86
70336;SHT31;57756;47.408;18.940;2022-09-09T08:26:21;27.29;61.14
70336;SHT31;57756;47.408;18.940;2022-09-09T08:28:49;27.28;61.08
70336;SHT31;57756;47.408;18.940;2022-09-09T08:31:25;27.56;58.80
70336;SHT31;57756;47.408;18.940;2022-09-09T08:33:53;27.66;58.18
70336;SHT31;57756;47.408;18.940;2022-09-09T08:36:21;28.00;57.63
70336;SHT31;57756;47.408;18.940;2022-09-09T08:38:47;28.05;59.18
70336;SHT31;57756;47.408;18.940;2022-09-09T08:41:35;28.24;58.18
70336;SHT31;57756;47.408;18.940;2022-09-09T08:52:39;28.80;55.66
70336;SHT31;57756;47.408;18.940;2022-09-09T08:57:55;29.37;54.88
70336;SHT31;57756;47.408;18.940;2022-09-09T09:00:21;29.35;54.16
70336;SHT31;57756;47.408;18.940;2022-09-09T09:03:06;29.92;54.06
70336;SHT31;57756;47.408;18.940;2022-09-09T09:05:43;30.14;51.71
70336;SHT31;57756;47.408;18.940;2022-09-09T09:08:29;30.12;50.92
70336;SHT31;57756;47.408;18.940;2022-09-09T09:10:58;30.38;51.56
70336;SHT31;57756;47.408;18.940;2022-09-09T09:13:40;30.25;50.31
70336;SHT31;57756;47.408;18.940;2022-09-09T09:18:49;30.30;49.38
70336;SHT31;57756;47.408;18.940;2022-09-09T09:22:02;30.95;50.59
70336;SHT31;57756;47.408;18.940;2022-09-09T09:24:21;30.92;49.47
70336;SHT31;57756;47.408;18.940;2022-09-09T09:26:48;31.23;50.15
70336;SHT31;57756;47.408;18.940;2022-09-09T09:29:17;31.27;49.44
70336;SHT31;57756;47.408;18.940;2022-09-09T09:31:55;31.40;48.69
70336;SHT31;57756;47.408;18.940;2022-09-09T09:34:22;31.63;47.72
70336;SHT31;57756;47.408;18.940;2022-09-09T09:36:59;31.91;48.08
70336;SHT31;57756;47.408;18.940;2022-09-09T09:39:31;31.92;46.69
70336;SHT31;57756;47.408;18.940;2022-09-09T09:42:17;31.98;45.43
70336;SHT31;57756;47.408;18.940;2022-09-09T09:44:43;31.88;47.13
70336;SHT31;57756;47.408;18.940;2022-09-09T09:47:20;32.04;47.59
70336;SHT31;57756;47.408;18.940;2022-09-09T09:50:00;32.25;44.65
70336;SHT31;57756;47.408;18.940;2022-09-09T09:52:28;32.15;44.11
70336;SHT31;57756;47.408;18.940;2022-09-09T09:54:56;32.21;42.34
70336;SHT31;57756;47.408;18.940;2022-09-09T09:57:27;31.91;43.90
70336;SHT31;57756;47.408;18.940;2022-09-09T10:02:39;32.22;44.00
70336;SHT31;57756;47.408;18.940;2022-09-09T10:05:16;32.53;43.04
70336;SHT31;57756;47.408;18.940;2022-09-09T10:07:42;32.71;43.61
70336;SHT31;57756;47.408;18.940;2022-09-09T10:13:14;32.84;41.78
70336;SHT31;57756;47.408;18.940;2022-09-09T10:16:33;32.69;38.90
70336;SHT31;57756;47.408;18.940;2022-09-09T10:19:01;32.97;43.22
70336;SHT31;57756;47.408;18.940;2022-09-09T10:24:15;33.12;40.09
70336;SHT31;57756;47.408;18.940;2022-09-09T10:26:53;33.10;41.46
70336;SHT31;57756;47.408;18.940;2022-09-09T10:32:37;32.97;41.75
70336;SHT31;57756;47.408;18.940;2022-09-09T10:46:12;32.76;41.21
70336;SHT31;57756;47.408;18.940;2022-09-09T10:52:00;32.94;40.94
70336;SHT31;57756;47.408;18.940;2022-09-09T10:54:46;32.91;40.89
70336;SHT31;57756;47.408;18.940;2022-09-09T11:00:04;32.53;39.70
70336;SHT31;57756;47.408;18.940;2022-09-09T11:02:33;32.69;40.77
70336;SHT31;57756;47.408;18.940;2022-09-09T11:05:06;32.60;39.56
70336;SHT31;57756;47.408;18.940;2022-09-09T11:10:12;32.40;40.90
70336;SHT31;57756;47.408;18.940;2022-09-09T11:12:39;32.33;39.82
70336;SHT31;57756;47.408;18.940;2022-09-09T11:18:14;32.66;40.08
70336;SHT31;57756;47.408;18.940;2022-09-09T11:20:41;32.77;40.22
70336;SHT31;57756;47.408;18.940;2022-09-09T11:23:17;32.73;40.02
70336;SHT31;57756;47.408;18.940;2022-09-09T11:25:51;32.37;38.73
70336;SHT31;57756;47.408;18.940;2022-09-09T11:41:46;31.44;41.61
70336;SHT31;57756;47.408;18.940;2022-09-09T11:44:17;31.09;41.95
70336;SHT31;57756;47.408;18.940;2022-09-09T11:46:51;30.76;42.76
70336;SHT31;57756;47.408;18.940;2022-09-09T11:49:42;30.24;41.62
70336;SHT31;57756;47.408;18.940;2022-09-09T11:54:47;29.90;42.44
70336;SHT31;57756;47.408;18.940;2022-09-09T11:57:24;29.70;42.05
70336;SHT31;57756;47.408;18.940;2022-09-09T11:59:51;29.79;44.50
70336;SHT31;57756;47.408;18.940;2022-09-09T12:02:28;29.75;42.77
70336;SHT31;57756;47.408;18.940;2022-09-09T12:05:09;29.80;43.72
70336;SHT31;57756;47.408;18.940;2022-09-09T12:07:56;29.52;43.10
70336;SHT31;57756;47.408;18.940;2022-09-09T12:10:30;29.48;45.31
70336;SHT31;57756;47.408;18.940;2022-09-09T12:13:18;29.42;44.12
70336;SHT31;57756;47.408;18.940;2022-09-09T12:15:53;29.34;44.79
70336;SHT31;57756;47.408;18.940;2022-09-09T12:18:32;29.20;44.15
70336;SHT31;57756;47.408;18.940;2022-09-09T12:23:55;28.97;44.72
70336;SHT31;57756;47.408;18.940;2022-09-09T12:26:34;29.08;45.62
70336;SHT31;57756;47.408;18.940;2022-09-09T12:37:02;28.60;45.48
70336;SHT31;57756;47.408;18.940;2022-09-09T12:39:35;28.56;45.55
70336;SHT31;57756;47.408;18.940;2022-09-09T12:42:02;28.31;44.77
70336;SHT31;57756;47.408;18.940;2022-09-09T12:44:29;28.48;46.34
70336;SHT31;57756;47.408;18.940;2022-09-09T12:46:58;28.51;45.02
70336;SHT31;57756;47.408;18.940;2022-09-09T12:49:34;28.32;44.60
70336;SHT31;57756;47.408;18.940;2022-09-09T12:52:28;28.34;46.15
70336;SHT31;57756;47.408;18.940;2022-09-09T12:54:52;28.29;44.64
70336;SHT31;57756;47.408;18.940;2022-09-09T12:57:19;28.31;45.21
70336;SHT31;57756;47.408;18.940;2022-09-09T12:59:48;28.39;45.18
70336;SHT31;57756;47.408;18.940;2022-09-09T13:02:26;28.46;45.28
70336;SHT31;57756;47.408;18.940;2022-09-09T13:04:53;28.46;46.13
70336;SHT31;57756;47.408;18.940;2022-09-09T13:07:20;28.44;45.88
70336;SHT31;57756;47.408;18.940;2022-09-09T13:09:47;28.31;46.01
70336;SHT31;57756;47.408;18.940;2022-09-09T13:12:19;28.35;46.73
70336;SHT31;57756;47.408;18.940;2022-09-09T13:14:49;28.21;46.23
70336;SHT31;57756;47.408;18.940;2022-09-09T13:17:26;28.26;46.50
70336;SHT31;57756;47.408;18.940;2022-09-09T13:19:55;28.28;46.85
70336;SHT31;57756;47.408;18.940;2022-09-09T13:22:44;28.32;46.85
70336;SHT31;57756;47.408;18.940;2022-09-09T13:33:21;28.11;46.67
70336;SHT31;57756;47.408;18.940;2022-09-09T13:35:57;28.15;47.13
70336;SHT31;57756;47.408;18.940;2022-09-09T13:38:27;28.21;46.57
70336;SHT31;57756;47.408;18.940;2022-09-09T13:41:03;28.21;49.30
70336;SHT31;57756;47.408;18.940;2022-09-09T13:43:42;28.21;48.30
70336;SHT31;57756;47.408;18.940;2022-09-09T13:49:00;28.28;46.29
70336;SHT31;57756;47.408;18.940;2022-09-09T13:54:06;28.29;45.65
70336;SHT31;57756;47.408;18.940;2022-09-09T13:56:34;28.15;45.91
70336;SHT31;57756;47.408;18.940;2022-09-09T13:59:01;28.08;45.59
70336;SHT31;57756;47.408;18.940;2022-09-09T14:01:27;28.05;48.08
70336;SHT31;57756;47.408;18.940;2022-09-09T14:03:53;27.84;45.17
70336;SHT31;57756;47.408;18.940;2022-09-09T14:06:18;27.70;45.37
70336;SHT31;57756;47.408;18.940;2022-09-09T14:08:44;27.47;46.65
70336;SHT31;57756;47.408;18.940;2022-09-09T14:11:12;27.46;47.35
70336;SHT31;57756;47.408;18.940;2022-09-09T14:13:38;27.45;47.69
70336;SHT31;57756;47.408;18.940;2022-09-09T14:16:03;27.35;47.19
70336;SHT31;57756;47.408;18.940;2022-09-09T14:18:29;27.45;49.07
70336;SHT31;57756;47.408;18.940;2022-09-09T14:20:54;27.52;47.18
70336;SHT31;57756;47.408;18.940;2022-09-09T14:23:20;27.38;47.68
70336;SHT31;57756;47.408;18.940;2022-09-09T14:25:47;27.40;48.29
70336;SHT31;57756;47.408;18.940;2022-09-09T14:28:14;27.36;48.26
70336;SHT31;57756;47.408;18.940;2022-09-09T14:30:41;27.28;47.91
70336;SHT31;57756;47.408;18.940;2022-09-09T14:33:08;27.28;48.10
70336;SHT31;57756;47.408;18.940;2022-09-09T14:35:34;27.18;49.83
70336;SHT31;57756;47.408;18.940;2022-09-09T14:38:02;27.12;48.25
70336;SHT31;57756;47.408;18.940;2022-09-09T14:40:27;27.06;49.80
70336;SHT31;57756;47.408;18.940;2022-09-09T14:42:53;27.05;50.01
70336;SHT31;57756;47.408;18.940;2022-09-09T14:45:19;27.01;50.21
70336;SHT31;57756;47.408;18.940;2022-09-09T14:47:46;27.04;51.05
70336;SHT31;57756;47.408;18.940;2022-09-09T14:50:12;26.98;51.02
70336;SHT31;57756;47.408;18.940;2022-09-09T14:52:37;27.04;48.19
70336;SHT31;57756;47.408;18.940;2022-09-09T14:55:04;27.01;52.88
70336;SHT31;57756;47.408;18.940;2022-09-09T14:57:29;26.98;50.18
70336;SHT31;57756;47.408;18.940;2022-09-09T14:59:55;27.02;51.67
70336;SHT31;57756;47.408;18.940;2022-09-09T15:02:22;27.01;51.02
70336;SHT31;57756;47.408;18.940;2022-09-09T15:04:47;26.98;51.19
70336;SHT31;57756;47.408;18.940;2022-09-09T15:07:15;26.95;52.73
70336;SHT31;57756;47.408;18.940;2022-09-09T15:09:41;26.95;49.10
70336;SHT31;57756;47.408;18.940;2022-09-09T15:12:06;26.96;48.26
70336;SHT31;57756;47.408;18.940;2022-09-09T15:14:32;27.01;50.65
70336;SHT31;57756;47.408;18.940;2022-09-09T15:16:58;27.06;50.10
70336;SHT31;57756;47.408;18.940;2022-09-09T15:19:23;27.05;47.18
70336;SHT31;57756;47.408;18.940;2022-09-09T15:21:49;27.08;48.17
70336;SHT31;57756;47.408;18.940;2022-09-09T15:24:14;27.02;48.02
70336;SHT31;57756;47.408;18.940;2022-09-09T15:26:41;26.94;48.32
70336;SHT31;57756;47.408;18.940;2022-09-09T15:29:07;26.83;48.57
70336;SHT31;57756;47.408;18.940;2022-09-09T15:31:33;26.68;52.26
70336;SHT31;57756;47.408;18.940;2022-09-09T15:34:00;26.54;49.34
70336;SHT31;57756;47.408;18.940;2022-09-09T15:36:34;26.40;49.41
70336;SHT31;57756;47.408;18.940;2022-09-09T15:39:02;26.30;49.40
70336;SHT31;57756;47.408;18.940;2022-09-09T15:41:29;26.20;51.77
70336;SHT31;57756;47.408;18.940;2022-09-09T15:43:57;26.08;49.27
70336;SHT31;57756;47.408;18.940;2022-09-09T15:48:49;25.99;49.98
70336;SHT31;57756;47.408;18.940;2022-09-09T15:51:16;25.98;53.18
70336;SHT31;57756;47.408;18.940;2022-09-09T15:53:42;25.96;52.73
70336;SHT31;57756;47.408;18.940;2022-09-09T15:56:07;25.93;52.39
70336;SHT31;57756;47.408;18.940;2022-09-09T15:58:34;25.81;55.52
70336;SHT31;57756;47.408;18.940;2022-09-09T16:03:33;25.67;57.79
70336;SHT31;57756;47.408;18.940;2022-09-09T16:05:59;25.61;57.79
70336;SHT31;57756;47.408;18.940;2022-09-09T16:08:30;25.45;59.16
70336;SHT31;57756;47.408;18.940;2022-09-09T16:10:56;25.33;58.35
70336;SHT31;57756;47.408;18.940;2022-09-09T16:13:21;25.24;59.06
70336;SHT31;57756;47.408;18.940;2022-09-09T16:15:54;25.20;60.06
70336;SHT31;57756;47.408;18.940;2022-09-09T16:18:19;25.15;60.86
70336;SHT31;57756;47.408;18.940;2022-09-09T16:20:54;25.09;60.26
70336;SHT31;57756;47.408;18.940;2022-09-09T16:23:19;25.02;60.08
70336;SHT31;57756;47.408;18.940;2022-09-09T16:25:55;24.90;60.59
70336;SHT31;57756;47.408;18.940;2022-09-09T16:28:21;24.80;61.19
70336;SHT31;57756;47.408;18.940;2022-09-09T16:30:47;24.71;61.98
70336;SHT31;57756;47.408;18.940;2022-09-09T16:33:13;24.62;61.80
70336;SHT31;57756;47.408;18.940;2022-09-09T16:35:41;24.47;62.46
70336;SHT31;57756;47.408;18.940;2022-09-09T16:38:07;24.32;62.04
70336;SHT31;57756;47.408;18.940;2022-09-09T16:40:39;24.25;61.78
70336;SHT31;57756;47.408;18.940;2022-09-09T16:43:07;24.20;60.96
70336;SHT31;57756;47.408;18.940;2022-09-09T16:45:32;24.03;62.82
70336;SHT31;57756;47.408;18.940;2022-09-09T16:47:59;23.96;62.81
70336;SHT31;57756;47.408;18.940;2022-09-09T16:50:26;23.86;64.15
70336;SHT31;57756;47.408;18.940;2022-09-09T16:52:52;23.72;64.65
70336;SHT31;57756;47.408;18.940;2022-09-09T16:55:18;23.52;66.95
70336;SHT31;57756;47.408;18.940;2022-09-09T16:57:46;23.27;67.07
70336;SHT31;57756;47.408;18.940;2022-09-09T17:00:14;23.14;66.66
70336;SHT31;57756;47.408;18.940;2022-09-09T17:02:40;22.98;66.80
70336;SHT31;57756;47.408;18.940;2022-09-09T17:05:06;22.80;66.84
70336;SHT31;57756;47.408;18.940;2022-09-09T17:07:31;22.67;67.52
70336;SHT31;57756;47.408;18.940;2022-09-09T17:09:57;22.57;65.92
70336;SHT31;57756;47.408;18.940;2022-09-09T17:12:23;22.46;66.76
70336;SHT31;57756;47.408;18.940;2022-09-09T17:14:49;22.31;67.83
70336;SHT31;57756;47.408;18.940;2022-09-09T17:17:15;22.21;68.42
70336;SHT31;57756;47.408;18.940;2022-09-09T17:19:40;22.15;68.54
70336;SHT31;57756;47.408;18.940;2022-09-09T17:22:05;22.04;69.04
70336;SHT31;57756;47.408;18.940;2022-09-09T17:24:32;21.91;68.99
70336;SHT31;57756;47.408;18.940;2022-09-09T17:26:59;21.81;69.43
70336;SHT31;57756;47.408;18.940;2022-09-09T17:29:27;21.74;68.50
70336;SHT31;57756;47.408;18.940;2022-09-09T17:31:53;21.64;70.15
70336;SHT31;57756;47.408;18.940;2022-09-09T17:34:21;21.76;67.77